Time;durP1;ratioP1;P1;durP2;ratioP2;P2;SDS_P1;SDS_P2;PMS_P1;PMS_P2;Temp;Humidity;BMP_temperature;BMP_pressure;BME280_temperature;BME280_humidity;BME280_pressure;Samples;Min_cycle;Max_cycle;Signal;HPM_P1;HPM_P2
2022/11/04 00:01:40;;;;;;;12.53;10.47;;;;;;;10.59;100.00;95375.59;5012211;28;102577;-65
2022/11/04 00:04:10;;;;;;;8.60;7.63;;;;;;;11.29;100.00;95375.09;5010349;28;101745;-66
2022/11/04 00:06:37;;;;;;;7.87;6.67;;;;;;;11.58;100.00;95370.59;5017214;28;102358;-66
2022/11/04 00:09:05;;;;;;;6.77;6.07;;;;;;;11.69;100.00;95386.22;5031957;27;102491;-65
2022/11/04 00:14:34;;;;;;;4.80;4.40;;;;;;;11.86;100.00;95391.09;5032549;27;102534;-66
2022/11/04 00:28:45;;;;;;;4.40;4.00;;;;;;;12.04;100.00;95427.69;5012262;28;102330;-65
2022/11/04 00:33:58;;;;;;;5.73;5.07;;;;;;;12.27;100.00;95435.69;5010889;28;102152;-65
2022/11/04 00:36:27;;;;;;;5.03;4.53;;;;;;;12.28;100.00;95436.50;5023224;28;102279;-66
2022/11/04 00:38:54;;;;;;;4.63;4.23;;;;;;;12.39;100.00;95440.63;5031592;27;102598;-65
2022/11/04 00:41:31;;;;;;;5.63;4.70;;;;;;;12.29;100.00;95452.22;5020767;27;101927;-66
2022/11/04 00:44:01;;;;;;;4.93;4.30;;;;;;;12.22;100.00;95448.28;5018309;28;102573;-66
2022/11/04 00:46:28;;;;;;;6.70;5.10;;;;;;;12.09;100.00;95454.28;5034774;27;102695;-66
2022/11/04 00:48:56;;;;;;;5.50;5.00;;;;;;;12.01;100.00;95465.56;5023190;27;102888;-66
2022/11/04 00:51:51;;;;;;;5.90;5.37;;;;;;;11.90;100.00;95474.72;5011409;28;103192;-66
2022/11/04 00:54:50;;;;;;;5.50;4.97;;;;;;;11.75;100.00;95483.63;5012824;28;101769;-66
2022/11/04 00:57:17;;;;;;;7.37;5.57;;;;;;;11.65;100.00;95490.91;5010362;28;103673;-66
2022/11/04 00:59:44;;;;;;;9.43;6.33;;;;;;;11.53;100.00;95493.91;5011161;28;102747;-66
2022/11/04 01:02:31;;;;;;;6.70;6.10;;;;;;;11.53;100.00;95503.75;5011768;28;101914;-66
2022/11/04 01:04:58;;;;;;;9.40;6.80;;;;;;;11.46;100.00;95503.28;5011584;28;102347;-66
2022/11/04 01:07:27;;;;;;;7.27;6.57;;;;;;;11.34;100.00;95516.13;5014606;28;102557;-65
2022/11/04 01:09:54;;;;;;;9.73;7.80;;;;;;;11.23;100.00;95527.91;5023418;28;102949;-66
2022/11/04 01:13:13;;;;;;;8.33;6.87;;;;;;;11.13;100.00;95527.97;5031027;27;102683;-66
2022/11/04 01:15:40;;;;;;;9.03;8.13;;;;;;;11.09;100.00;95540.22;5009676;28;101836;-66
2022/11/04 01:18:07;;;;;;;7.47;6.77;;;;;;;11.07;100.00;95542.38;5021143;28;104029;-66
2022/11/04 01:20:34;;;;;;;7.53;6.53;;;;;;;11.00;100.00;95531.19;5030866;27;102566;-66
2022/11/04 01:23:03;;;;;;;6.20;5.60;;;;;;;10.84;100.00;95535.78;5020132;28;101891;-66
2022/11/04 01:25:31;;;;;;;5.40;4.90;;;;;;;10.79;100.00;95546.44;5011479;28;101787;-66
2022/11/04 01:27:58;;;;;;;5.97;4.70;;;;;;;10.68;100.00;95552.09;5007059;28;105908;-66
2022/11/04 01:30:25;;;;;;;4.73;4.00;;;;;;;10.57;100.00;95548.66;5014775;28;101922;-66
2022/11/04 01:32:58;;;;;;;5.83;3.40;;;;;;;10.47;100.00;95547.91;5017587;28;101877;-66
2022/11/04 01:35:25;;;;;;;4.33;3.93;;;;;;;10.38;100.00;95552.97;5024194;27;103512;-66
2022/11/04 01:37:52;;;;;;;3.00;2.80;;;;;;;10.32;100.00;95553.22;5011242;28;102612;-65
2022/11/04 01:40:21;;;;;;;2.90;2.50;;;;;;;10.25;100.00;95556.16;5016832;28;103102;-66
2022/11/04 01:42:56;;;;;;;2.53;2.30;;;;;;;10.20;100.00;95553.50;5029516;28;102207;-65
2022/11/04 01:45:24;;;;;;;2.27;1.77;;;;;;;10.13;100.00;95557.50;5020973;28;104069;-66
2022/11/04 01:47:59;;;;;;;2.20;2.00;;;;;;;10.04;100.00;95553.81;5008980;28;103846;-65
2022/11/04 01:50:30;;;;;;;1.80;1.70;;;;;;;9.99;100.00;95565.19;5010512;28;101960;-65
2022/11/04 01:57:51;;;;;;;1.77;1.53;;;;;;;9.87;100.00;95580.59;5007950;28;101747;-65
2022/11/04 02:00:20;;;;;;;1.90;1.30;;;;;;;9.87;100.00;95587.78;5011053;28;102614;-65
2022/11/04 02:02:57;;;;;;;2.13;1.63;;;;;;;9.78;100.00;95590.16;5010019;28;103344;-66
2022/11/04 02:05:24;;;;;;;2.70;1.60;;;;;;;9.76;100.00;95586.94;5024791;28;101836;-65
2022/11/04 02:07:56;;;;;;;2.63;1.60;;;;;;;9.73;100.00;95589.34;5030476;27;102874;-65
2022/11/04 02:10:26;;;;;;;2.10;1.53;;;;;;;9.69;100.00;95582.97;5010168;28;103143;-66
2022/11/04 02:13:34;;;;;;;1.63;1.53;;;;;;;9.66;100.00;95588.81;5010519;28;101785;-65
2022/11/04 02:16:13;;;;;;;1.90;1.63;;;;;;;9.61;100.00;95586.97;5009204;28;103410;-65
2022/11/04 02:18:54;;;;;;;1.57;1.40;;;;;;;9.60;100.00;95581.91;5013472;28;102753;-65
2022/11/04 02:22:06;;;;;;;2.07;1.37;;;;;;;9.54;100.00;95583.72;5017315;28;102475;-65
2022/11/04 02:28:57;;;;;;;1.03;0.93;;;;;;;9.48;100.00;95586.66;5010741;28;101748;-65
2022/11/04 02:31:35;;;;;;;1.20;1.10;;;;;;;9.41;100.00;95586.09;4971327;28;103904;-65
2022/11/04 02:34:12;;;;;;;0.97;0.93;;;;;;;9.35;100.00;95580.00;5027919;27;102608;-65
2022/11/04 02:36:46;;;;;;;1.40;1.30;;;;;;;9.40;100.00;95579.19;5030759;27;102194;-66
2022/11/04 02:39:24;;;;;;;0.93;0.87;;;;;;;9.32;100.00;95571.78;5013312;27;102307;-66
2022/11/04 02:42:15;;;;;;;1.03;1.00;;;;;;;9.32;100.00;95563.81;5010245;28;102637;-65
2022/11/04 02:44:46;;;;;;;1.53;0.90;;;;;;;9.31;100.00;95560.34;5013928;28;101758;-66
2022/11/04 02:47:17;;;;;;;0.90;0.90;;;;;;;9.28;100.00;95544.16;5024731;28;103868;-66
2022/11/04 02:49:51;;;;;;;0.80;0.80;;;;;;;9.23;100.00;95538.84;5028554;28;101977;-65
2022/11/04 02:52:30;;;;;;;1.03;0.70;;;;;;;9.26;100.00;95546.28;5030175;27;102424;-65
2022/11/04 02:58:24;;;;;;;0.60;0.60;;;;;;;9.22;100.00;95524.75;5030291;27;102134;-65
2022/11/04 03:01:08;;;;;;;1.20;0.70;;;;;;;9.22;100.00;95516.03;5029919;27;102373;-66
2022/11/04 03:03:42;;;;;;;0.80;0.80;;;;;;;9.11;100.00;95511.75;5029740;28;102614;-65
2022/11/04 03:06:12;;;;;;;0.90;0.90;;;;;;;9.14;100.00;95505.91;5028617;28;101951;-65
2022/11/04 03:08:45;;;;;;;1.20;1.10;;;;;;;9.13;100.00;95499.03;5031492;28;103493;-65
2022/11/04 03:15:04;;;;;;;0.80;0.80;;;;;;;9.07;100.00;95500.88;5011950;28;102014;-66
2022/11/04 03:17:35;;;;;;;0.90;0.90;;;;;;;9.10;100.00;95500.34;5007849;28;103752;-66
2022/11/04 03:20:09;;;;;;;1.30;1.20;;;;;;;9.13;100.00;95499.03;5008558;28;101747;-65
2022/11/04 03:22:36;;;;;;;1.33;0.90;;;;;;;9.15;100.00;95489.75;5008793;28;104760;-65
2022/11/04 03:25:46;;;;;;;1.10;1.00;;;;;;;9.14;100.00;95492.66;5007850;28;105166;-65
2022/11/04 03:28:25;;;;;;;1.00;0.87;;;;;;;9.11;100.00;95493.19;5008363;28;101979;-65
2022/11/04 03:30:59;;;;;;;0.83;0.83;;;;;;;9.07;100.00;95489.47;5015547;28;103487;-66
2022/11/04 03:33:27;;;;;;;0.87;0.87;;;;;;;9.06;100.00;95493.97;5021798;28;101984;-66
2022/11/04 03:35:57;;;;;;;0.70;0.70;;;;;;;9.05;100.00;95489.72;5029459;27;102362;-65
2022/11/04 03:38:24;;;;;;;1.00;0.90;;;;;;;9.04;100.00;95484.69;5028238;28;103731;-65
2022/11/04 03:40:52;;;;;;;0.83;0.83;;;;;;;8.99;100.00;95488.13;5031100;28;102136;-65
2022/11/04 03:43:26;;;;;;;1.10;1.10;;;;;;;9.04;100.00;95482.03;5031850;28;104913;-65
2022/11/04 03:45:54;;;;;;;0.80;0.80;;;;;;;9.11;100.00;95471.97;5029539;28;104113;-65
2022/11/04 03:48:24;;;;;;;0.63;0.63;;;;;;;9.11;100.00;95485.25;5032350;28;101902;-65
2022/11/04 03:50:51;;;;;;;1.10;0.83;;;;;;;9.14;100.00;95474.91;5020357;28;104802;-65
2022/11/04 03:53:21;;;;;;;0.83;0.70;;;;;;;9.22;100.00;95449.72;5015743;28;103201;-65
2022/11/04 03:56:37;;;;;;;0.63;0.63;;;;;;;9.28;100.00;95438.03;5011234;28;103924;-66
2022/11/04 03:59:25;;;;;;;0.80;0.80;;;;;;;9.30;100.00;95449.19;4950464;28;104973;-65
2022/11/04 04:01:59;;;;;;;0.67;0.67;;;;;;;9.39;100.00;95434.34;5006903;28;101828;-66
2022/11/04 04:04:29;;;;;;;0.93;0.80;;;;;;;9.46;100.00;95437.50;5012937;28;101869;-65
2022/11/04 04:07:01;;;;;;;0.80;0.80;;;;;;;9.40;100.00;95449.19;5012163;28;102707;-65
2022/11/04 04:09:37;;;;;;;0.90;0.90;;;;;;;9.28;100.00;95465.34;5012421;28;101731;-65
2022/11/04 04:12:48;;;;;;;1.43;1.03;;;;;;;9.27;100.00;95473.59;5012565;28;102563;-65
2022/11/04 04:15:22;;;;;;;1.00;0.90;;;;;;;9.10;100.00;95479.13;5011604;28;102613;-65
2022/11/04 04:17:53;;;;;;;1.10;1.00;;;;;;;9.06;100.00;95483.38;5016087;28;102085;-65
2022/11/04 04:20:23;;;;;;;1.40;1.30;;;;;;;9.02;100.00;95489.47;5024245;28;102562;-65
2022/11/04 04:27:29;;;;;;;0.80;0.80;;;;;;;8.99;100.00;95492.66;5032588;27;101663;-65
2022/11/04 04:29:10;;;;;;;1.47;0.70;;;;;;;8.92;100.00;95492.91;5027206;28;105762;-65
2022/11/04 04:32:16;;;;;;;1.00;1.00;;;;;;;8.94;100.00;95501.38;5012181;28;101814;-66
2022/11/04 04:34:44;;;;;;;1.13;1.03;;;;;;;8.97;100.00;95489.44;5012097;28;104816;-65
2022/11/04 04:37:18;;;;;;;1.00;1.00;;;;;;;8.99;100.00;95488.13;5010143;28;105520;-65
2022/11/04 04:45:52;;;;;;;1.40;1.30;;;;;;;8.94;100.00;95497.94;5031970;27;103670;-65
2022/11/04 04:48:19;;;;;;;1.40;1.30;;;;;;;8.97;100.00;95495.56;5031646;28;102572;-65
2022/11/04 04:50:49;;;;;;;1.40;1.10;;;;;;;9.01;100.00;95501.13;5028903;27;103832;-65
2022/11/04 04:53:17;;;;;;;1.47;1.37;;;;;;;8.99;100.00;95508.56;5031716;27;101871;-65
2022/11/04 04:56:09;;;;;;;1.27;1.03;;;;;;;8.99;100.00;95500.59;5030496;28;103534;-65
2022/11/04 04:58:38;;;;;;;1.30;1.20;;;;;;;9.03;100.00;95491.84;5030873;28;101749;-66
2022/11/04 05:01:18;;;;;;;1.10;1.10;;;;;;;9.06;100.00;95490.53;5011785;28;101980;-65
2022/11/04 05:03:45;;;;;;;1.50;1.40;;;;;;;9.08;100.00;95506.97;5014375;28;102528;-65
2022/11/04 05:06:12;;;;;;;2.00;1.13;;;;;;;9.03;100.00;95505.13;5034545;28;102867;-65
2022/11/04 05:08:39;;;;;;;9.20;8.30;;;;;;;9.00;100.00;95505.63;5029989;27;102268;-65
2022/11/04 05:11:35;;;;;;;3.23;3.03;;;;;;;9.02;100.00;95500.88;5031016;27;102663;-65
2022/11/04 05:14:03;;;;;;;2.10;2.00;;;;;;;9.03;100.00;95504.31;5028781;28;101948;-65
2022/11/04 05:16:30;;;;;;;2.10;1.70;;;;;;;8.92;100.00;95518.59;5030078;28;105035;-65
2022/11/04 05:18:57;;;;;;;3.70;1.90;;;;;;;8.89;100.00;95514.59;5018597;28;105351;-66
2022/11/04 05:21:55;;;;;;;2.47;2.27;;;;;;;8.91;100.00;95507.22;5011610;28;101831;-65
2022/11/04 05:24:45;;;;;;;1.83;1.73;;;;;;;8.85;100.00;95508.25;5011482;28;102904;-65
2022/11/04 05:27:12;;;;;;;1.73;1.60;;;;;;;8.83;100.00;95509.56;5010911;28;102821;-65
2022/11/04 05:29:41;;;;;;;2.60;1.80;;;;;;;8.82;100.00;95507.97;5014867;28;101849;-65
2022/11/04 05:32:08;;;;;;;2.30;1.80;;;;;;;8.84;100.00;95505.84;5009411;28;103930;-65
2022/11/04 05:34:35;;;;;;;2.00;1.60;;;;;;;8.90;100.00;95528.69;5030718;28;102000;-66
2022/11/04 05:37:02;;;;;;;3.70;1.80;;;;;;;8.84;100.00;95516.47;5030152;27;103546;-65
2022/11/04 05:39:29;;;;;;;3.37;2.47;;;;;;;8.80;100.00;95520.69;5027764;28;102645;-65
2022/11/04 05:45:45;;;;;;;2.37;1.70;;;;;;;8.82;100.00;95513.25;5028109;28;101921;-65
2022/11/04 05:48:12;;;;;;;3.17;2.70;;;;;;;8.78;100.00;95512.19;5027523;28;105289;-65
2022/11/04 05:50:42;;;;;;;2.53;2.33;;;;;;;8.74;100.00;95527.84;5033977;27;102330;-65
2022/11/04 05:53:48;;;;;;;1.80;1.67;;;;;;;8.75;100.00;95529.44;5029951;27;103824;-65
2022/11/04 05:56:31;;;;;;;1.00;1.00;;;;;;;8.75;100.00;95539.22;5029827;28;101944;-65
2022/11/04 05:58:57;;;;;;;2.23;1.73;;;;;;;8.72;100.00;95550.34;5014353;27;102557;-65
2022/11/04 06:05:14;;;;;;;3.13;1.17;;;;;;;8.68;100.00;95555.34;5027185;28;102381;-65
2022/11/04 06:07:42;;;;;;;1.03;0.90;;;;;;;8.69;100.00;95551.66;5030500;27;103079;-67
2022/11/04 06:10:10;;;;;;;1.20;1.00;;;;;;;8.70;100.00;95545.31;5029008;28;105225;-67
2022/11/04 06:13:18;;;;;;;2.00;1.30;;;;;;;8.70;100.00;95558.56;5029530;28;101850;-67
2022/11/04 06:15:46;;;;;;;1.00;1.00;;;;;;;8.68;100.00;95549.25;5023480;28;106134;-67
2022/11/04 06:18:15;;;;;;;2.17;1.33;;;;;;;8.70;100.00;95547.16;5019229;28;101883;-65
2022/11/04 06:20:43;;;;;;;1.00;1.00;;;;;;;8.66;100.00;95556.66;5009073;28;104990;-65
2022/11/04 06:23:12;;;;;;;1.30;0.80;;;;;;;8.65;100.00;95549.75;5008575;28;104110;-65
2022/11/04 06:25:43;;;;;;;1.67;0.97;;;;;;;8.63;100.00;95551.88;5010422;28;101890;-65
2022/11/04 06:28:10;;;;;;;1.20;1.10;;;;;;;8.62;100.00;95542.34;5009037;28;105000;-65
2022/11/04 06:30:37;;;;;;;1.47;1.10;;;;;;;8.63;100.00;95541.28;5008386;28;103885;-65
2022/11/04 06:33:31;;;;;;;1.90;0.77;;;;;;;8.69;100.00;95545.56;5010515;28;102181;-66
2022/11/04 06:36:01;;;;;;;1.13;1.00;;;;;;;8.69;100.00;95554.31;5008733;28;105251;-66
2022/11/04 06:38:31;;;;;;;1.33;0.97;;;;;;;8.61;100.00;95557.44;5011700;28;105593;-66
2022/11/04 06:41:17;;;;;;;1.23;1.00;;;;;;;8.59;100.00;95548.16;5013043;28;105580;-65
2022/11/04 06:43:45;;;;;;;1.20;1.10;;;;;;;8.54;100.00;95527.75;5028547;28;104018;-65
2022/11/04 06:46:26;;;;;;;1.40;1.13;;;;;;;8.63;100.00;95507.66;5028799;28;101933;-65
2022/11/04 06:48:53;;;;;;;1.80;1.00;;;;;;;8.66;100.00;95504.47;5030112;27;102261;-66
2022/11/04 06:52:22;;;;;;;2.50;2.30;;;;;;;8.63;100.00;95536.00;5029968;27;102540;-65
2022/11/04 06:58:31;;;;;;;1.70;1.30;;;;;;;8.49;100.00;95546.25;5030432;27;102605;-66
2022/11/04 07:01:29;;;;;;;2.93;1.53;;;;;;;8.49;100.00;95548.09;5016853;27;102694;-65
2022/11/04 07:03:58;;;;;;;3.30;1.43;;;;;;;8.47;100.00;95553.69;5011664;28;101815;-66
2022/11/04 07:06:27;;;;;;;1.60;1.50;;;;;;;8.42;100.00;95561.59;5009041;28;102807;-66
2022/11/04 07:08:56;;;;;;;2.13;1.93;;;;;;;8.48;100.00;95559.75;5018900;28;102891;-66
2022/11/04 07:11:35;;;;;;;1.53;1.43;;;;;;;8.42;100.00;95568.72;5014098;27;102251;-65
2022/11/04 07:14:03;;;;;;;1.10;1.00;;;;;;;8.40;100.00;95579.56;5011078;28;102549;-65
2022/11/04 07:16:30;;;;;;;1.23;1.13;;;;;;;8.38;100.00;95575.59;5012906;28;101780;-65
2022/11/04 07:18:58;;;;;;;2.07;1.47;;;;;;;8.38;100.00;95591.47;5013300;28;102369;-66
2022/11/04 07:21:44;;;;;;;1.63;1.00;;;;;;;8.33;100.00;95605.50;5012657;28;102633;-65
2022/11/04 07:24:28;;;;;;;1.40;1.30;;;;;;;8.39;100.00;95614.28;5011895;28;101964;-65
2022/11/04 07:26:55;;;;;;;2.10;1.00;;;;;;;8.34;100.00;95627.50;5016262;28;102373;-65
2022/11/04 07:29:24;;;;;;;1.10;1.00;;;;;;;8.32;100.00;95619.00;5026761;28;101878;-65
2022/11/04 07:35:16;;;;;;;1.30;1.20;;;;;;;8.31;100.00;95622.69;5032559;27;103080;-66
2022/11/04 07:37:44;;;;;;;2.40;2.00;;;;;;;8.27;100.00;95632.19;5022446;27;101815;-66
2022/11/04 07:40:11;;;;;;;1.73;1.60;;;;;;;8.30;100.00;95623.75;5011621;28;105614;-66
2022/11/04 07:42:59;;;;;;;1.50;1.40;;;;;;;8.28;100.00;95618.72;5011757;28;103694;-66
2022/11/04 07:45:39;;;;;;;2.93;1.70;;;;;;;8.28;100.00;95613.41;5027660;28;102175;-67
2022/11/04 07:48:07;;;;;;;2.50;2.30;;;;;;;8.26;100.00;95610.22;5031548;28;104127;-66
2022/11/04 07:50:34;;;;;;;3.87;1.60;;;;;;;8.27;100.00;95598.56;5032200;27;102384;-66
2022/11/04 07:54:01;;;;;;;1.33;1.10;;;;;;;8.22;100.00;95580.00;5030559;28;105316;-66
2022/11/04 07:56:54;;;;;;;2.23;1.80;;;;;;;8.23;100.00;95586.88;5014211;28;102966;-66
2022/11/04 07:59:21;;;;;;;1.23;1.13;;;;;;;8.16;100.00;95599.53;5015859;27;102098;-66
2022/11/04 08:01:53;;;;;;;0.73;0.73;;;;;;;8.15;100.00;95589.19;5025032;28;105046;-66
2022/11/04 08:04:21;;;;;;;2.23;1.10;;;;;;;8.17;100.00;95579.13;5027224;28;105250;-66
2022/11/04 08:06:48;;;;;;;3.53;2.93;;;;;;;8.15;100.00;95583.88;5019150;28;101958;-64
2022/11/04 08:09:16;;;;;;;1.43;1.33;;;;;;;8.15;100.00;95578.59;5016172;28;105117;-64
2022/11/04 08:15:31;;;;;;;1.10;1.03;;;;;;;8.05;100.00;95581.97;5011600;28;101978;-68
2022/11/04 08:18:00;;;;;;;1.70;1.60;;;;;;;8.03;100.00;95591.22;5010256;28;105361;-67
2022/11/04 08:20:27;;;;;;;2.57;1.63;;;;;;;7.99;100.00;95587.47;5023381;28;102175;-65
2022/11/04 08:23:41;;;;;;;3.00;1.70;;;;;;;7.98;100.00;95581.41;5030828;28;103759;-66
2022/11/04 08:26:50;;;;;;;2.40;2.07;;;;;;;8.03;100.00;95575.34;5028817;27;105056;-69
2022/11/04 08:29:19;;;;;;;1.90;1.80;;;;;;;7.98;100.00;95591.19;5032104;28;102386;-66
2022/11/04 08:31:55;;;;;;;2.37;1.90;;;;;;;8.00;100.00;95586.41;5030482;28;105335;-66
2022/11/04 08:34:24;;;;;;;2.07;1.90;;;;;;;7.97;100.00;95579.78;5030571;28;105380;-67
2022/11/04 08:36:52;;;;;;;3.40;1.87;;;;;;;7.94;100.00;95579.50;5029598;28;101994;-65
2022/11/04 08:39:20;;;;;;;2.07;1.80;;;;;;;7.97;100.00;95574.47;5018615;28;105884;-66
2022/11/04 08:41:52;;;;;;;2.00;1.70;;;;;;;7.91;100.00;95569.44;5025203;28;102307;-67
2022/11/04 08:44:21;;;;;;;3.03;2.10;;;;;;;7.93;100.00;95567.31;5011124;28;105422;-67
2022/11/04 08:46:49;;;;;;;3.33;1.70;;;;;;;7.92;100.00;95555.13;5014511;28;105461;-67
2022/11/04 08:49:15;;;;;;;1.80;1.40;;;;;;;7.86;100.00;95558.78;5011165;28;101759;-67
2022/11/04 08:52:06;;;;;;;1.80;1.70;;;;;;;7.87;100.00;95565.69;5010791;28;104798;-66
2022/11/04 08:58:11;;;;;;;1.90;1.70;;;;;;;7.77;100.00;95545.22;5011210;28;101918;-66
2022/11/04 09:00:39;;;;;;;1.90;1.57;;;;;;;7.75;100.00;95536.72;4919222;28;105313;-66
2022/11/04 09:03:29;;;;;;;2.23;2.00;;;;;;;7.74;100.00;95535.13;4947862;28;102403;-65
2022/11/04 09:06:00;;;;;;;2.17;2.07;;;;;;;7.74;100.00;95552.88;4933449;28;105629;-69
2022/11/04 09:08:30;;;;;;;1.90;1.53;;;;;;;7.69;100.00;95566.06;4932508;28;105855;-66
2022/11/04 09:11:06;;;;;;;1.70;1.60;;;;;;;7.69;100.00;95548.34;4940847;28;101889;-67
2022/11/04 09:13:33;;;;;;;1.37;1.27;;;;;;;7.60;100.00;95538.47;4947771;28;105024;-66
2022/11/04 09:16:02;;;;;;;2.00;1.83;;;;;;;7.69;100.00;95534.31;4928950;28;105708;-66
2022/11/04 09:18:31;;;;;;;3.10;2.80;;;;;;;7.74;100.00;95537.00;4913956;28;102003;-67
2022/11/04 09:21:20;;;;;;;5.80;5.17;;;;;;;7.75;100.00;95528.00;4931411;28;105057;-66
2022/11/04 09:23:49;;;;;;;3.43;3.13;;;;;;;7.71;100.00;95522.44;4935845;28;105052;-67
2022/11/04 09:26:31;;;;;;;3.80;2.97;;;;;;;7.65;100.00;95522.63;4932991;28;105100;-66
2022/11/04 09:28:59;;;;;;;8.17;7.00;;;;;;;7.61;100.00;95524.19;4932713;28;103986;-67
2022/11/04 09:32:12;;;;;;;8.37;5.83;;;;;;;7.58;100.00;95532.66;4932494;28;101897;-66
2022/11/04 09:34:39;;;;;;;14.37;11.80;;;;;;;7.64;100.00;95531.63;4933156;28;104959;-66
2022/11/04 09:37:06;;;;;;;7.70;6.90;;;;;;;7.66;100.00;95530.34;4941436;28;105416;-66
2022/11/04 09:39:34;;;;;;;7.17;5.60;;;;;;;7.74;100.00;95529.06;5009949;28;101937;-67
2022/11/04 09:45:57;;;;;;;3.67;2.10;;;;;;;7.56;100.00;95535.53;5007485;28;102224;-66
2022/11/04 09:48:28;;;;;;;4.77;2.70;;;;;;;7.46;100.00;95539.91;5022993;28;103646;-66
2022/11/04 09:51:25;;;;;;;5.67;3.10;;;;;;;7.55;100.00;95538.41;5030216;28;102600;-66
2022/11/04 09:53:56;;;;;;;1.57;1.47;;;;;;;7.56;100.00;95529.44;5029485;27;101708;-66
2022/11/04 09:56:58;;;;;;;2.20;1.97;;;;;;;7.55;100.00;95525.19;5031398;27;101927;-65
2022/11/04 09:59:29;;;;;;;1.50;1.37;;;;;;;7.65;100.00;95533.22;5028367;27;102691;-66
2022/11/04 10:02:40;;;;;;;1.33;1.23;;;;;;;7.70;100.00;95544.63;5029466;28;101988;-66
2022/11/04 10:05:24;;;;;;;1.40;1.30;;;;;;;7.55;100.00;95544.53;5029423;28;105311;-66
2022/11/04 10:08:08;;;;;;;2.80;2.60;;;;;;;7.52;100.00;95534.44;5027173;28;103690;-66
2022/11/04 10:10:41;;;;;;;3.27;2.97;;;;;;;7.60;100.00;95536.63;5033927;28;101707;-66
2022/11/04 10:13:46;;;;;;;2.97;2.77;;;;;;;7.60;100.00;95531.34;5029866;27;101763;-64
2022/11/04 10:16:36;;;;;;;2.73;2.53;;;;;;;7.62;100.00;95533.72;5028757;28;101891;-67
2022/11/04 10:19:17;;;;;;;3.40;2.60;;;;;;;7.55;100.00;95533.94;5030002;27;103830;-66
2022/11/04 10:22:27;;;;;;;2.40;1.80;;;;;;;7.66;100.00;95534.81;5010090;28;102611;-65
2022/11/04 10:25:05;;;;;;;1.40;1.10;;;;;;;7.56;100.00;95529.44;5010598;28;101724;-64
2022/11/04 10:27:37;;;;;;;1.90;1.10;;;;;;;7.67;100.00;95520.53;5009073;28;103452;-63
2022/11/04 10:30:15;;;;;;;2.77;1.80;;;;;;;7.68;100.00;95516.84;5024842;28;102849;-66
2022/11/04 10:32:55;;;;;;;7.60;4.10;;;;;;;7.43;100.00;95517.44;5030161;28;101865;-66
2022/11/04 10:35:31;;;;;;;5.07;1.90;;;;;;;7.51;100.00;95529.38;5030292;28;103615;-66
2022/11/04 10:38:11;;;;;;;5.73;3.93;;;;;;;7.48;100.00;95521.97;5010402;28;102063;-66
2022/11/04 10:40:40;;;;;;;12.50;5.43;;;;;;;7.52;100.00;95509.84;5010408;28;101663;-67
2022/11/04 10:43:52;;;;;;;10.03;5.43;;;;;;;7.60;100.00;95509.38;5008393;28;105029;-68
2022/11/04 10:46:36;;;;;;;3.43;2.37;;;;;;;7.68;100.00;95519.50;5020226;28;101980;-67
2022/11/04 10:49:13;;;;;;;1.90;1.43;;;;;;;7.60;100.00;95510.19;5011160;28;105531;-67
2022/11/04 10:51:40;;;;;;;2.90;1.70;;;;;;;7.70;100.00;95498.88;5022209;28;105745;-67
2022/11/04 10:54:10;;;;;;;2.33;2.07;;;;;;;7.61;100.00;95505.66;5032668;28;101927;-67
2022/11/04 10:56:42;;;;;;;3.27;2.20;;;;;;;7.55;100.00;95506.69;5018049;28;105625;-67
2022/11/04 10:59:22;;;;;;;1.30;1.20;;;;;;;7.47;100.00;95507.16;5016697;28;102636;-67
2022/11/04 11:01:53;;;;;;;1.00;1.00;;;;;;;7.34;100.00;95505.72;5012200;28;103609;-64
2022/11/04 11:04:28;;;;;;;1.00;1.00;;;;;;;7.48;100.00;95514.81;5022551;28;104938;-64
2022/11/04 11:06:59;;;;;;;3.00;1.10;;;;;;;7.53;100.00;95533.38;5020967;28;101865;-67
2022/11/04 11:09:29;;;;;;;1.73;1.20;;;;;;;7.62;100.00;95539.81;5013788;28;105354;-65
2022/11/04 11:12:01;;;;;;;0.97;0.97;;;;;;;7.60;100.00;95541.94;5020771;27;102769;-65
2022/11/04 11:14:35;;;;;;;3.67;3.37;;;;;;;7.61;100.00;95534.78;5017252;28;101709;-66
2022/11/04 11:17:22;;;;;;;3.00;2.80;;;;;;;7.14;100.00;95552.34;5020853;27;101660;-66
2022/11/04 11:19:54;;;;;;;1.43;1.30;;;;;;;7.11;100.00;95568.69;5013180;28;102721;-66
2022/11/04 11:26:27;;;;;;;1.03;1.03;;;;;;;7.15;100.00;95532.78;5011346;28;102979;-66
2022/11/04 11:28:56;;;;;;;0.80;0.80;;;;;;;7.16;100.00;95547.59;5014622;28;101868;-66
2022/11/04 11:31:42;;;;;;;0.83;0.83;;;;;;;7.07;100.00;95559.63;5013134;28;102532;-66
2022/11/04 11:34:18;;;;;;;1.00;0.90;;;;;;;6.92;100.00;95575.34;5011277;28;105593;-66
2022/11/04 11:36:46;;;;;;;2.70;1.50;;;;;;;6.86;100.00;95582.41;5011863;28;102173;-66
2022/11/04 11:39:20;;;;;;;1.70;1.60;;;;;;;6.81;100.00;95548.00;5011742;28;105456;-66
2022/11/04 11:45:17;;;;;;;3.70;2.27;;;;;;;6.77;100.00;95546.09;5031511;28;101934;-66
2022/11/04 11:47:45;;;;;;;2.50;1.93;;;;;;;6.76;100.00;95540.00;5034201;28;107024;-66
2022/11/04 11:50:18;;;;;;;1.80;1.70;;;;;;;6.78;100.00;95547.69;5031335;28;101969;-66
2022/11/04 11:53:49;;;;;;;1.63;1.60;;;;;;;6.81;100.00;95555.91;5021199;28;105186;-66
2022/11/04 11:56:46;;;;;;;1.27;1.27;;;;;;;6.71;100.00;95558.44;5010972;28;103940;-66
2022/11/04 11:59:23;;;;;;;2.17;1.67;;;;;;;6.70;100.00;95556.84;5013091;28;101679;-66
2022/11/04 12:05:17;;;;;;;2.50;2.30;;;;;;;6.44;100.00;95551.50;5011910;28;105525;-66
2022/11/04 12:07:50;;;;;;;5.70;3.87;;;;;;;6.49;100.00;95533.88;5025532;28;101682;-66
2022/11/04 12:10:27;;;;;;;4.97;4.30;;;;;;;6.44;100.00;95528.50;5033105;28;101673;-66
2022/11/04 12:16:50;;;;;;;2.37;2.17;;;;;;;6.28;100.00;95563.69;5030868;28;102386;-66
2022/11/04 12:19:34;;;;;;;1.93;1.83;;;;;;;6.25;100.00;95577.38;5031925;27;103798;-66
2022/11/04 12:22:14;;;;;;;1.97;1.27;;;;;;;6.20;100.00;95579.13;5032154;27;102007;-66
2022/11/04 12:25:05;;;;;;;1.17;1.00;;;;;;;6.11;100.00;95591.94;5026768;28;104995;-66
2022/11/04 12:27:40;;;;;;;1.00;0.90;;;;;;;6.03;100.00;95602.13;5029890;28;105146;-66
2022/11/04 12:30:12;;;;;;;0.80;0.80;;;;;;;6.01;100.00;95598.94;5031194;28;102144;-66
2022/11/04 12:36:23;;;;;;;2.10;1.50;;;;;;;5.98;100.00;95602.84;5032738;28;103176;-66
2022/11/04 12:39:06;;;;;;;3.83;2.70;;;;;;;5.96;100.00;95596.22;5028080;28;105108;-68
2022/11/04 12:41:49;;;;;;;1.80;1.70;;;;;;;5.95;100.00;95607.81;5011842;28;101666;-68
2022/11/04 12:44:27;;;;;;;2.67;1.87;;;;;;;5.97;100.00;95618.91;5017164;28;101706;-68
2022/11/04 12:47:06;;;;;;;3.40;1.50;;;;;;;5.92;100.00;95613.56;5015204;28;102868;-68
2022/11/04 12:49:48;;;;;;;4.07;2.20;;;;;;;5.93;100.00;95601.97;5009437;28;104156;-68
2022/11/04 12:52:56;;;;;;;1.20;1.20;;;;;;;5.88;100.00;95575.50;5010549;28;101939;-68
2022/11/04 12:55:42;;;;;;;1.40;1.10;;;;;;;5.86;100.00;95561.75;5026664;28;102412;-68
2022/11/04 12:58:24;;;;;;;2.57;2.37;;;;;;;5.80;100.00;95570.63;5011004;28;104309;-68
2022/11/04 13:00:57;;;;;;;1.37;1.37;;;;;;;5.90;100.00;95576.84;5015656;28;101700;-68
2022/11/04 13:03:30;;;;;;;1.13;1.13;;;;;;;5.71;100.00;95583.38;5011107;28;105624;-68
2022/11/04 13:06:04;;;;;;;0.90;0.90;;;;;;;5.73;100.00;95588.44;5015759;28;101703;-68
2022/11/04 13:08:39;;;;;;;7.60;5.00;;;;;;;5.78;100.00;95588.50;5031841;27;102313;-68
2022/11/04 13:11:56;;;;;;;7.07;4.63;;;;;;;5.73;100.00;95581.31;5029909;27;102711;-68
2022/11/04 13:14:28;;;;;;;11.33;7.00;;;;;;;5.64;100.00;95581.94;5024427;28;102074;-68
2022/11/04 13:16:59;;;;;;;1.00;1.00;;;;;;;5.58;100.00;95578.44;5022941;28;102464;-68
2022/11/04 13:19:31;;;;;;;10.47;6.73;;;;;;;5.58;100.00;95582.91;5020327;28;102583;-68
2022/11/04 13:22:06;;;;;;;7.40;4.97;;;;;;;5.63;100.00;95583.78;5022852;28;101836;-68
2022/11/04 13:25:24;;;;;;;12.47;7.60;;;;;;;5.69;100.00;95579.38;5034713;27;102550;-68
2022/11/04 13:27:51;;;;;;;5.53;3.90;;;;;;;5.59;100.00;95580.03;5012084;28;102301;-68
2022/11/04 13:30:27;;;;;;;5.80;4.40;;;;;;;5.62;100.00;95584.81;5021854;28;102244;-68
2022/11/04 13:33:08;;;;;;;1.90;1.80;;;;;;;5.64;100.00;95577.47;5011243;27;102540;-68
2022/11/04 13:35:46;;;;;;;1.00;1.00;;;;;;;5.57;100.00;95578.66;5011254;28;103305;-68